createdAt,value
2018-09-04T00:00:30.510Z,24.80
2018-09-04T00:02:59.756Z,24.33
2018-09-04T00:05:29.144Z,24.60
2018-09-04T00:16:56.671Z,26.07
2018-09-04T00:19:26.607Z,26.03
2018-09-04T00:21:56.071Z,25.63
2018-09-04T00:24:25.279Z,27.13
2018-09-04T00:26:54.603Z,27.73
2018-09-04T00:29:24.431Z,26.13
2018-09-04T00:31:53.741Z,26.73
2018-09-04T00:34:23.055Z,27.50
2018-09-04T00:36:52.232Z,27.23
2018-09-04T00:39:21.841Z,26.63
2018-09-04T00:41:51.114Z,26.03
2018-09-04T00:44:20.341Z,25.83
2018-09-04T00:46:49.575Z,26.17
2018-09-04T00:49:18.964Z,25.87
2018-09-04T00:51:48.255Z,24.77
2018-09-04T00:54:17.473Z,24.60
2018-09-04T00:56:46.712Z,24.13
2018-09-04T00:59:15.967Z,24.10
2018-09-04T01:01:45.191Z,22.80
2018-09-04T01:04:14.833Z,24.57
2018-09-04T01:06:44.099Z,23.90
2018-09-04T01:09:21.455Z,24.47
2018-09-04T01:11:50.740Z,24.00
2018-09-04T01:14:19.915Z,24.03
2018-09-04T01:16:49.216Z,24.27
2018-09-04T01:19:19.880Z,24.50
2018-09-04T01:21:49.046Z,23.63
2018-09-04T01:24:18.312Z,23.20
2018-09-04T01:26:47.579Z,23.07
2018-09-04T01:29:16.995Z,22.63
2018-09-04T01:31:46.254Z,22.13
2018-09-04T01:34:15.476Z,22.30
2018-09-04T01:36:44.653Z,21.83
2018-09-04T01:39:13.968Z,23.50
2018-09-04T01:41:43.225Z,21.80
2018-09-04T01:44:12.453Z,21.50
2018-09-04T01:46:43.176Z,22.97
2018-09-04T01:49:12.427Z,23.30
2018-09-04T01:51:41.687Z,22.07
2018-09-04T01:54:10.860Z,21.13
2018-09-04T01:56:40.079Z,22.27
2018-09-04T01:59:09.299Z,21.23
2018-09-04T02:01:38.627Z,22.20
2018-09-04T02:04:07.847Z,20.40
2018-09-04T02:06:37.132Z,21.23
2018-09-04T02:09:17.346Z,20.67
2018-09-04T02:11:46.667Z,21.43
2018-09-04T02:14:15.850Z,21.63
2018-09-04T02:16:45.153Z,22.27
2018-09-04T02:19:14.495Z,22.13
2018-09-04T02:21:43.779Z,21.73
2018-09-04T02:24:13.213Z,22.17
2018-09-04T02:26:42.479Z,22.73
2018-09-04T02:29:11.681Z,21.50
2018-09-04T02:31:40.952Z,24.03
2018-09-04T02:34:10.158Z,22.73
2018-09-04T02:36:39.452Z,23.13
2018-09-04T02:39:10.279Z,23.60
2018-09-04T02:41:39.479Z,23.73
2018-09-04T02:44:08.807Z,23.50
2018-09-04T02:46:38.405Z,22.57
2018-09-04T02:49:08.549Z,23.97
2018-09-04T02:51:38.154Z,24.57
2018-09-04T02:54:07.458Z,24.60
2018-09-04T02:56:36.787Z,24.73
2018-09-04T02:59:06.012Z,23.40
2018-09-04T03:01:35.363Z,24.10
2018-09-04T03:04:04.588Z,25.17
2018-09-04T03:06:33.826Z,24.40
2018-09-04T03:09:03.511Z,25.20
2018-09-04T03:11:32.759Z,26.40
2018-09-04T03:14:02.094Z,24.27
2018-09-04T03:16:31.427Z,25.60
2018-09-04T03:19:00.699Z,25.23
2018-09-04T03:21:29.944Z,24.33
2018-09-04T03:23:59.509Z,24.37
2018-09-04T03:26:28.707Z,27.23
2018-09-04T03:28:57.909Z,25.37
2018-09-04T03:31:27.838Z,26.77
2018-09-04T03:33:57.134Z,25.60
2018-09-04T03:36:26.368Z,26.53
2018-09-04T03:38:55.556Z,24.73
2018-09-04T03:41:24.782Z,25.77
2018-09-04T03:43:53.974Z,25.17
2018-09-04T03:46:23.859Z,25.03
2018-09-04T03:48:53.143Z,25.77
2018-09-04T03:51:22.388Z,24.87
2018-09-04T03:53:51.764Z,25.33
2018-09-04T03:56:21.007Z,25.47
2018-09-04T03:58:50.187Z,26.47
2018-09-04T04:01:19.692Z,25.67
2018-09-04T04:03:49.005Z,26.33
2018-09-04T04:06:18.228Z,25.10
2018-09-04T04:08:47.492Z,25.60
2018-09-04T04:11:17.716Z,25.60
2018-09-04T04:13:47.472Z,26.57
2018-09-04T04:16:16.815Z,25.93
2018-09-04T04:18:46.105Z,25.73
2018-09-04T04:21:15.337Z,24.87
2018-09-04T04:23:45.768Z,24.53
2018-09-04T04:26:16.588Z,26.37
2018-09-04T04:28:45.965Z,25.07
2018-09-04T04:31:15.136Z,26.43
2018-09-04T04:33:44.402Z,25.17
2018-09-04T04:36:13.590Z,25.10
2018-09-04T04:38:42.848Z,23.93
2018-09-04T04:41:12.078Z,24.80
2018-09-04T04:43:41.260Z,25.37
2018-09-04T04:46:10.488Z,23.13
2018-09-04T04:48:39.734Z,24.23
2018-09-04T04:51:08.936Z,24.27
2018-09-04T04:53:38.223Z,23.80
2018-09-04T04:56:07.491Z,25.00
2018-09-04T04:58:36.799Z,23.83
2018-09-04T05:01:06.471Z,24.07
2018-09-04T05:03:35.689Z,24.53
2018-09-04T05:06:05.035Z,25.43
2018-09-04T05:08:34.356Z,23.97
2018-09-04T05:11:03.679Z,25.70
2018-09-04T05:13:32.855Z,24.27
2018-09-04T05:16:02.177Z,25.27
2018-09-04T05:18:31.414Z,25.63
2018-09-04T05:21:00.748Z,27.70
2018-09-04T05:23:29.974Z,26.37
2018-09-04T05:25:59.175Z,26.63
2018-09-04T05:28:28.358Z,27.73
2018-09-04T05:30:57.438Z,26.90
2018-09-04T05:33:32.994Z,26.73
2018-09-04T05:36:02.011Z,27.80
2018-09-04T05:38:31.018Z,29.37
2018-09-04T05:40:59.962Z,28.83
2018-09-04T05:44:00.950Z,29.47
2018-09-04T05:46:40.242Z,29.73
2018-09-04T05:49:09.512Z,30.67
2018-09-04T05:51:38.772Z,29.23
2018-09-04T05:54:08.122Z,28.83
2018-09-04T05:56:37.375Z,30.97
2018-09-04T05:59:06.636Z,29.57
2018-09-04T06:01:36.023Z,30.70
2018-09-04T06:04:05.308Z,29.90
2018-09-04T06:06:35.015Z,32.33
2018-09-04T06:09:05.759Z,32.07
2018-09-04T06:11:35.459Z,30.97
2018-09-04T06:14:04.775Z,32.40
2018-09-04T06:16:34.108Z,30.63
2018-09-04T06:19:03.431Z,32.63
2018-09-04T06:21:32.739Z,30.57
2018-09-04T06:24:01.952Z,31.43
2018-09-04T06:26:31.214Z,32.10
2018-09-04T06:29:00.451Z,32.90
2018-09-04T06:31:29.652Z,31.80
2018-09-04T06:33:59.048Z,32.47
2018-09-04T06:36:28.260Z,33.13
2018-09-04T06:38:57.512Z,33.03
2018-09-04T06:41:26.719Z,36.13
2018-09-04T06:43:55.968Z,34.73
2018-09-04T06:46:25.264Z,33.27
2018-09-04T06:48:54.611Z,33.07
2018-09-04T06:51:23.802Z,34.87
2018-09-04T06:53:53.064Z,33.60
2018-09-04T06:56:22.399Z,33.97
2018-09-04T06:58:51.628Z,32.80
2018-09-04T07:01:20.887Z,35.13
2018-09-04T07:03:50.043Z,33.80
2018-09-04T07:06:19.276Z,35.53
2018-09-04T07:08:48.480Z,33.70
2018-09-04T07:11:17.771Z,35.50
2018-09-04T07:13:46.979Z,32.23
2018-09-04T07:16:16.227Z,33.93
2018-09-04T07:18:45.452Z,35.27
2018-09-04T07:21:14.684Z,33.47
2018-09-04T07:23:43.909Z,33.90
2018-09-04T07:26:13.440Z,34.27
2018-09-04T07:28:42.708Z,32.53
2018-09-04T07:31:11.991Z,33.00
2018-09-04T07:33:41.175Z,33.67
2018-09-04T07:36:10.451Z,33.17
2018-09-04T07:38:39.617Z,33.73
2018-09-04T07:41:08.929Z,33.37
2018-09-04T07:43:38.137Z,34.20
2018-09-04T07:46:07.461Z,35.57
2018-09-04T07:48:36.720Z,35.93
2018-09-04T07:51:06.071Z,33.20
2018-09-04T07:53:35.388Z,34.33
2018-09-04T07:56:04.667Z,35.07
2018-09-04T07:58:33.894Z,35.60
2018-09-04T08:01:03.243Z,36.23
2018-09-04T08:03:32.440Z,34.97
2018-09-04T08:06:01.676Z,36.50
2018-09-04T08:08:30.915Z,34.53
2018-09-04T08:11:00.345Z,36.03
2018-09-04T08:13:29.588Z,35.10
2018-09-04T08:15:58.888Z,36.07
2018-09-04T08:18:28.140Z,36.43
2018-09-04T08:20:57.546Z,35.20
2018-09-04T08:23:26.730Z,35.77
2018-09-04T08:25:56.033Z,34.97
2018-09-04T08:28:25.260Z,36.03
2018-09-04T08:30:54.636Z,36.37
2018-09-04T08:33:23.883Z,35.73
2018-09-04T08:35:53.156Z,36.07
2018-09-04T08:38:22.408Z,35.83
2018-09-04T08:40:51.690Z,35.80
2018-09-04T08:43:21.045Z,36.37
2018-09-04T08:45:50.292Z,37.47
2018-09-04T08:48:20.787Z,37.43
2018-09-04T08:50:50.155Z,36.20
2018-09-04T08:53:19.457Z,35.63
2018-09-04T08:55:48.691Z,35.33
2018-09-04T08:58:17.961Z,34.20
2018-09-04T09:00:47.241Z,36.53
2018-09-04T09:03:16.592Z,38.00
2018-09-04T09:05:45.816Z,37.17
2018-09-04T09:08:15.067Z,34.90
2018-09-04T09:10:44.356Z,37.00
2018-09-04T09:13:13.587Z,36.37
2018-09-04T09:15:42.863Z,37.20
2018-09-04T09:18:12.154Z,37.07
2018-09-04T09:20:42.439Z,37.00
2018-09-04T09:23:11.723Z,35.63
2018-09-04T09:25:40.915Z,36.70
2018-09-04T09:28:10.291Z,36.70
2018-09-04T09:30:39.573Z,35.17
2018-09-04T09:33:08.833Z,34.73
2018-09-04T09:35:38.138Z,37.30
2018-09-04T09:38:07.341Z,34.40
2018-09-04T09:40:36.617Z,38.50
2018-09-04T09:43:06.193Z,36.37
2018-09-04T09:45:35.475Z,35.57
2018-09-04T09:48:04.880Z,35.07
2018-09-04T09:50:34.157Z,36.83
2018-09-04T09:53:03.549Z,36.13
2018-09-04T09:55:32.707Z,35.40
2018-09-04T09:58:02.017Z,35.20
2018-09-04T10:00:38.230Z,37.23
2018-09-04T10:03:12.712Z,36.07
2018-09-04T10:05:41.947Z,35.50
2018-09-04T10:08:11.309Z,35.30
2018-09-04T10:10:40.578Z,35.03
2018-09-04T10:13:10.115Z,33.80
2018-09-04T10:15:39.348Z,36.10
2018-09-04T10:18:08.600Z,34.73
2018-09-04T10:20:37.832Z,35.63
2018-09-04T10:23:07.123Z,33.73
2018-09-04T10:25:36.289Z,35.03
2018-09-04T10:28:05.536Z,33.97
2018-09-04T10:30:34.732Z,34.90
2018-09-04T10:33:04.015Z,33.30
2018-09-04T10:35:33.247Z,34.00
2018-09-04T10:38:02.530Z,34.83
2018-09-04T10:40:36.956Z,34.20
2018-09-04T10:43:06.293Z,33.23
2018-09-04T10:45:40.660Z,34.47
2018-09-04T10:48:13.935Z,33.90
2018-09-04T10:50:43.191Z,35.10
2018-09-04T10:53:12.418Z,32.97
2018-09-04T10:55:41.740Z,32.33
2018-09-04T10:58:10.960Z,32.63
2018-09-04T11:00:40.211Z,33.17
2018-09-04T11:03:09.435Z,32.53
2018-09-04T11:05:39.152Z,31.90
2018-09-04T11:08:08.464Z,32.10
2018-09-04T11:10:37.688Z,34.00
2018-09-04T11:13:07.751Z,33.37
2018-09-04T11:15:36.964Z,33.60
2018-09-04T11:18:06.329Z,30.73
2018-09-04T11:20:35.528Z,31.83
2018-09-04T11:23:04.991Z,32.20
2018-09-04T11:25:34.257Z,31.30
2018-09-04T11:28:03.504Z,32.23
2018-09-04T11:30:32.779Z,33.63
2018-09-04T11:33:02.199Z,33.37
2018-09-04T11:35:32.260Z,36.17
2018-09-04T11:38:01.647Z,36.53
2018-09-04T11:40:30.877Z,36.27
2018-09-04T11:43:00.226Z,36.73
2018-09-04T11:45:29.524Z,35.30
2018-09-04T11:48:00.576Z,37.03
2018-09-04T11:50:29.859Z,36.40
2018-09-04T11:52:59.132Z,33.73
2018-09-04T11:55:28.372Z,36.33
2018-09-04T11:57:57.509Z,36.07
2018-09-04T12:00:39.461Z,34.03
2018-09-04T12:03:10.006Z,32.33
2018-09-04T12:05:39.315Z,31.40
2018-09-04T12:08:08.525Z,32.60
2018-09-04T12:10:37.752Z,34.37
2018-09-04T12:13:07.023Z,33.73
2018-09-04T12:15:40.057Z,33.10
2018-09-04T12:18:10.339Z,29.67
2018-09-04T12:20:43.151Z,33.13
2018-09-04T12:23:12.339Z,30.87
2018-09-04T12:25:42.319Z,32.00
2018-09-04T12:28:11.516Z,31.57
2018-09-04T12:30:40.788Z,32.97
2018-09-04T12:33:10.066Z,33.87
2018-09-04T12:35:39.356Z,31.90
2018-09-04T12:38:11.171Z,33.80
2018-09-04T12:40:40.543Z,31.97
2018-09-04T12:43:09.772Z,29.67
2018-09-04T12:45:44.074Z,29.53
2018-09-04T12:48:17.531Z,30.03
2018-09-04T12:50:46.616Z,31.03
2018-09-04T12:53:15.839Z,31.53
2018-09-04T12:55:45.099Z,29.23
2018-09-04T12:58:14.414Z,33.20
2018-09-04T13:00:48.808Z,32.57
2018-09-04T13:03:19.304Z,32.80
2018-09-04T13:05:48.595Z,29.13
2018-09-04T13:08:18.668Z,32.30
2018-09-04T13:10:48.119Z,30.63
2018-09-04T13:13:17.320Z,29.77
2018-09-04T13:15:48.502Z,30.53
2018-09-04T13:18:17.859Z,28.70
2018-09-04T13:20:47.229Z,30.90
2018-09-04T13:23:16.525Z,31.20
2018-09-04T13:25:45.836Z,28.60
2018-09-04T13:28:15.085Z,30.20
2018-09-04T13:30:44.442Z,30.77
2018-09-04T13:33:13.650Z,29.77
2018-09-04T13:35:42.944Z,30.47
2018-09-04T13:38:12.159Z,29.77
2018-09-04T13:40:41.410Z,28.07
2018-09-04T13:43:10.661Z,26.10
2018-09-04T13:45:39.891Z,29.53
2018-09-04T13:48:09.181Z,28.97
2018-09-04T13:50:38.486Z,27.40
2018-09-04T13:53:07.656Z,26.70
2018-09-04T13:55:36.971Z,25.83
2018-09-04T13:58:06.159Z,25.23
2018-09-04T14:00:35.429Z,22.73
2018-09-04T14:03:04.691Z,22.23
2018-09-04T14:08:40.425Z,20.60
2018-09-04T14:11:09.614Z,19.77
2018-09-04T14:13:38.747Z,19.53
2018-09-04T14:16:10.491Z,19.47
2018-09-04T14:18:39.737Z,20.23
2018-09-04T14:21:09.233Z,20.23
2018-09-04T14:23:38.354Z,20.17
2018-09-04T14:26:08.070Z,22.30
2018-09-04T14:28:41.578Z,19.25
2018-09-04T14:31:07.484Z,20.62
2018-09-04T14:33:36.732Z,20.40
2018-09-04T14:36:06.058Z,19.32
2018-09-04T14:38:35.387Z,18.20
2018-09-04T14:41:05.132Z,18.92
2018-09-04T14:43:34.487Z,18.10
2018-09-04T14:46:03.915Z,18.17
2018-09-04T14:48:33.175Z,18.62
2018-09-04T14:51:02.682Z,17.50
2018-09-04T14:53:31.945Z,18.75
2018-09-04T14:56:01.220Z,18.63
2018-09-04T14:58:30.393Z,18.52
2018-09-04T15:01:04.462Z,18.70
2018-09-04T15:03:33.692Z,18.93
2018-09-04T15:06:02.985Z,18.77
2018-09-04T15:08:32.267Z,18.37
2018-09-04T15:11:01.541Z,18.03
2018-09-04T15:13:30.828Z,17.10
2018-09-04T15:16:00.760Z,18.17
2018-09-04T15:18:30.080Z,18.57
2018-09-04T15:20:59.654Z,18.03
2018-09-04T15:23:28.870Z,18.83
2018-09-04T15:25:58.359Z,16.30
2018-09-04T15:28:27.603Z,17.87
2018-09-04T15:30:57.660Z,18.00
2018-09-04T15:33:26.874Z,18.37
2018-09-04T15:35:56.554Z,17.43
2018-09-04T15:38:25.879Z,18.10
2018-09-04T15:40:55.095Z,17.50
2018-09-04T15:43:24.311Z,18.57
2018-09-04T15:45:53.544Z,17.17
2018-09-04T15:48:22.810Z,18.00
2018-09-04T15:50:52.060Z,17.62
2018-09-04T15:53:21.339Z,17.43
2018-09-04T15:55:50.733Z,16.93
2018-09-04T15:58:20.465Z,16.43
2018-09-04T16:00:49.764Z,19.93
2018-09-04T16:03:19.041Z,20.43
2018-09-04T16:05:48.375Z,19.03
2018-09-04T16:08:17.793Z,18.73
2018-09-04T16:10:47.052Z,17.63
2018-09-04T16:13:16.333Z,19.93
2018-09-04T16:15:45.556Z,17.07
2018-09-04T16:18:14.779Z,16.47
2018-09-04T16:20:44.327Z,16.50
2018-09-04T16:23:14.074Z,16.40
2018-09-04T16:25:44.063Z,16.73
2018-09-04T16:28:13.412Z,16.13
2018-09-04T16:30:43.660Z,18.83
2018-09-04T16:33:12.841Z,16.77
2018-09-04T16:35:42.425Z,16.20
2018-09-04T16:38:11.731Z,15.70
2018-09-04T16:40:40.895Z,16.07
2018-09-04T16:43:10.155Z,17.07
2018-09-04T16:45:39.439Z,16.87
2018-09-04T16:48:08.751Z,17.40
2018-09-04T16:50:37.978Z,16.23
2018-09-04T16:53:07.292Z,15.60
2018-09-04T16:55:36.596Z,15.07
2018-09-04T16:58:06.154Z,15.30
2018-09-04T17:00:35.392Z,15.60
2018-09-04T17:03:08.540Z,15.57
2018-09-04T17:05:39.637Z,15.37
2018-09-04T17:08:33.172Z,15.77
2018-09-04T17:11:02.356Z,15.53
2018-09-04T17:13:31.932Z,16.10
2018-09-04T17:16:01.133Z,16.50
2018-09-04T17:18:30.369Z,15.97
2018-09-04T17:20:59.547Z,16.07
2018-09-04T17:23:28.788Z,17.10
2018-09-04T17:25:58.040Z,16.07
2018-09-04T17:28:27.717Z,16.10
2018-09-04T17:30:56.862Z,16.17
2018-09-04T17:33:26.076Z,16.30
2018-09-04T17:35:55.360Z,17.10
2018-09-04T17:38:24.632Z,17.00
2018-09-04T17:40:53.833Z,17.47
2018-09-04T17:43:30.491Z,16.87
2018-09-04T17:46:22.559Z,15.93
2018-09-04T17:48:51.809Z,16.20
2018-09-04T17:51:21.095Z,16.70
2018-09-04T17:53:50.623Z,16.83
2018-09-04T17:56:19.916Z,16.90
2018-09-04T17:58:49.209Z,17.13
2018-09-04T18:01:18.425Z,16.70
2018-09-04T18:03:48.454Z,17.43
2018-09-04T18:06:17.723Z,17.63
2018-09-04T18:11:55.947Z,17.60
2018-09-04T18:14:25.457Z,17.27
2018-09-04T18:16:54.686Z,16.50
2018-09-04T18:19:24.044Z,17.07
2018-09-04T18:21:53.416Z,17.50
2018-09-04T18:24:22.948Z,18.70
2018-09-04T18:26:52.359Z,18.27
2018-09-04T18:29:21.579Z,18.27
2018-09-04T18:31:50.798Z,17.10
2018-09-04T18:34:20.177Z,18.13
2018-09-04T18:36:49.407Z,17.80
2018-09-04T18:39:20.202Z,17.37
2018-09-04T18:41:49.800Z,17.80
2018-09-04T18:44:19.020Z,18.13
2018-09-04T18:46:48.291Z,17.93
2018-09-04T18:49:17.607Z,16.57
2018-09-04T18:51:46.893Z,17.27
2018-09-04T18:54:16.128Z,16.73
2018-09-04T18:56:45.315Z,16.70
2018-09-04T18:59:14.563Z,17.00
2018-09-04T19:01:43.797Z,16.93
2018-09-04T19:04:13.068Z,17.07
2018-09-04T19:06:42.306Z,17.00
2018-09-04T19:09:11.640Z,17.00
2018-09-04T19:11:40.864Z,16.57
2018-09-04T19:14:10.230Z,17.37
2018-09-04T19:16:40.774Z,16.47
2018-09-04T19:19:10.021Z,17.23
2018-09-04T19:24:42.784Z,16.40
2018-09-04T19:27:12.035Z,16.00
2018-09-04T19:32:35.511Z,16.03
2018-09-04T19:35:04.932Z,16.30
2018-09-04T19:37:34.335Z,15.93
2018-09-04T19:40:03.592Z,15.40
2018-09-04T19:42:32.906Z,16.27
2018-09-04T19:45:02.238Z,15.83
2018-09-04T19:47:39.554Z,15.93
2018-09-04T19:50:15.769Z,15.57
2018-09-04T19:52:45.008Z,15.47
2018-09-04T19:55:14.471Z,15.27
2018-09-04T19:57:43.876Z,15.23
2018-09-04T20:00:13.103Z,15.87
2018-09-04T20:02:42.365Z,15.00
2018-09-04T20:05:11.610Z,15.13
2018-09-04T20:07:40.801Z,14.43
2018-09-04T20:10:10.194Z,14.40
2018-09-04T20:12:39.578Z,15.70
2018-09-04T20:15:08.908Z,14.57
2018-09-04T20:17:39.056Z,14.93
2018-09-04T20:20:08.424Z,14.43
2018-09-04T20:22:37.651Z,14.10
2018-09-04T20:25:07.067Z,14.77
2018-09-04T20:27:36.267Z,14.63
2018-09-04T20:30:07.215Z,15.23
2018-09-04T20:32:36.607Z,14.80
2018-09-04T20:35:06.132Z,13.93
2018-09-04T20:37:35.447Z,15.30
2018-09-04T20:40:04.793Z,14.43
2018-09-04T20:42:42.350Z,13.83
2018-09-04T20:45:11.691Z,14.40
2018-09-04T20:47:40.912Z,15.30
2018-09-04T20:50:10.366Z,13.90
2018-09-04T20:52:39.667Z,13.93
2018-09-04T20:55:08.947Z,14.10
2018-09-04T20:57:38.256Z,14.33
2018-09-04T21:00:19.884Z,13.87
2018-09-04T21:03:00.263Z,14.23
2018-09-04T21:05:40.267Z,13.93
2018-09-04T21:08:25.204Z,13.70
2018-09-04T21:10:54.492Z,14.33
2018-09-04T21:13:23.691Z,14.13
2018-09-04T21:15:52.979Z,14.10
2018-09-04T21:18:22.268Z,13.63
2018-09-04T21:20:51.561Z,14.00
2018-09-04T21:23:20.928Z,13.50
2018-09-04T21:25:50.236Z,13.67
2018-09-04T21:28:19.694Z,14.60
2018-09-04T21:30:50.743Z,14.57
2018-09-04T21:33:20.033Z,14.97
2018-09-04T21:35:52.090Z,15.40
2018-09-04T21:38:21.435Z,15.00
2018-09-04T21:40:50.675Z,15.73
2018-09-04T21:43:19.940Z,15.07
2018-09-04T21:45:49.196Z,14.87
2018-09-04T21:48:18.475Z,15.30
2018-09-04T21:50:48.027Z,15.13
2018-09-04T21:53:17.679Z,15.07
2018-09-04T21:55:46.900Z,15.93
2018-09-04T21:58:17.740Z,16.03
2018-09-04T22:00:47.062Z,15.47
2018-09-04T22:03:16.391Z,15.47
2018-09-04T22:05:45.596Z,15.60
2018-09-04T22:08:14.823Z,15.73
2018-09-04T22:10:44.144Z,15.90
2018-09-04T22:13:13.381Z,16.27
2018-09-04T22:15:42.575Z,15.77
2018-09-04T22:18:11.887Z,15.57
2018-09-04T22:20:41.115Z,15.17
2018-09-04T22:23:10.359Z,15.93
2018-09-04T22:25:39.648Z,16.43
2018-09-04T22:28:08.866Z,15.20
2018-09-04T22:30:38.073Z,14.27
2018-09-04T22:33:07.402Z,14.80
2018-09-04T22:35:36.617Z,14.87
2018-09-04T22:38:05.808Z,13.77
2018-09-04T22:40:38.099Z,14.77
2018-09-04T22:43:07.363Z,15.07
2018-09-04T22:45:36.652Z,14.07
2018-09-04T22:48:05.923Z,13.30
2018-09-04T22:50:40.309Z,13.73
2018-09-04T22:53:09.539Z,14.47
2018-09-04T22:55:38.860Z,14.03
2018-09-04T22:58:08.287Z,14.40
2018-09-04T23:00:37.428Z,13.90
2018-09-04T23:03:06.714Z,14.60
2018-09-04T23:05:36.007Z,13.33
2018-09-04T23:08:05.339Z,14.30
2018-09-04T23:10:34.671Z,13.27
2018-09-04T23:13:03.859Z,13.20
2018-09-04T23:15:36.913Z,13.73
2018-09-04T23:18:06.128Z,14.50
2018-09-04T23:20:35.436Z,14.33
2018-09-04T23:23:05.699Z,13.73
2018-09-04T23:25:35.032Z,13.53
2018-09-04T23:28:04.287Z,13.87
2018-09-04T23:30:33.543Z,13.57
2018-09-04T23:33:02.799Z,14.30
2018-09-04T23:35:32.021Z,14.43
2018-09-04T23:38:01.247Z,13.57
2018-09-04T23:40:30.491Z,14.23
2018-09-04T23:42:59.707Z,14.10
2018-09-04T23:45:29.576Z,14.60
2018-09-04T23:47:58.759Z,15.47
2018-09-04T23:50:28.841Z,14.50
2018-09-04T23:52:58.399Z,14.93
2018-09-04T23:55:27.692Z,14.87
2018-09-04T23:57:56.911Z,14.37
